Time;durP1;ratioP1;P1;durP2;ratioP2;P2;SDS_P1;SDS_P2;PMS_P1;PMS_P2;Temp;Humidity;BMP_temperature;BMP_pressure;BME280_temperature;BME280_humidity;BME280_pressure;Samples;Min_cycle;Max_cycle;Signal;HPM_P1;HPM_P2
2022/04/11 00:01:35;;;;;;;;;;;1.50;99.90;;;;;;5046117;28;19917;-84
2022/04/11 00:04:00;;;;;;;;;;;1.50;99.90;;;;;;5030244;28;20329;-84
2022/04/11 00:06:25;;;;;;;;;;;1.50;99.90;;;;;;5024026;28;20370;-85
2022/04/11 00:08:51;;;;;;;;;;;1.60;99.90;;;;;;5010934;28;19913;-85
2022/04/11 00:11:16;;;;;;;;;;;1.60;99.90;;;;;;5016546;28;20345;-84
2022/04/11 00:13:42;;;;;;;;;;;1.70;99.90;;;;;;5023889;28;19924;-85
2022/04/11 00:16:07;;;;;;;;;;;1.70;99.90;;;;;;5029984;28;20340;-84
2022/04/11 00:18:36;;;;;;;;;;;1.80;99.90;;;;;;5004101;28;19944;-84
2022/04/11 00:21:02;;;;;;;;;;;1.80;99.90;;;;;;5021080;28;19924;-84
2022/04/11 00:23:28;;;;;;;;;;;1.80;99.90;;;;;;5001649;28;19917;-84
2022/04/11 00:25:53;;;;;;;;;;;1.90;99.90;;;;;;5014099;28;19920;-85
2022/04/11 00:28:18;;;;;;;;;;;1.90;99.90;;;;;;5028306;28;19919;-84
2022/04/11 00:30:44;;;;;;;;;;;1.90;99.90;;;;;;5006575;28;19967;-85
2022/04/11 00:33:09;;;;;;;;;;;1.90;99.90;;;;;;5021869;28;19917;-84
2022/04/11 00:35:35;;;;;;;;;;;2.00;99.90;;;;;;5010807;28;20000;-85
2022/04/11 00:38:00;;;;;;;;;;;2.00;99.90;;;;;;5012880;28;20388;-85
2022/04/11 00:40:26;;;;;;;;;;;2.00;99.90;;;;;;5038276;28;19913;-85
2022/04/11 00:42:51;;;;;;;;;;;2.00;99.90;;;;;;5013483;28;19917;-86
2022/04/11 00:45:17;;;;;;;;;;;2.10;99.90;;;;;;5013667;28;19917;-86
2022/04/11 00:47:42;;;;;;;;;;;2.10;99.90;;;;;;5025760;28;20259;-84
2022/04/11 00:50:09;;;;;;;;;;;2.10;99.90;;;;;;5046427;28;19919;-83
2022/04/11 00:52:42;;;;;;;;;;;2.20;99.90;;;;;;5022387;28;19975;-85
2022/04/11 00:55:08;;;;;;;;;;;2.20;99.90;;;;;;5012766;28;19920;-86
2022/04/11 00:57:34;;;;;;;;;;;2.20;99.90;;;;;;5021693;28;20279;-86
2022/04/11 01:00:02;;;;;;;;;;;2.30;99.90;;;;;;5030102;28;19923;-86
2022/04/11 01:02:28;;;;;;;;;;;2.30;99.90;;;;;;5023542;28;19944;-86
2022/04/11 01:04:53;;;;;;;;;;;2.40;99.90;;;;;;5030829;28;19921;-86
2022/04/11 01:07:21;;;;;;;;;;;2.40;99.90;;;;;;5023057;28;19914;-85
2022/04/11 01:09:47;;;;;;;;;;;2.40;99.90;;;;;;5008689;28;20012;-85
2022/04/11 01:12:15;;;;;;;;;;;2.40;99.90;;;;;;5030391;28;19952;-85
2022/04/11 01:14:40;;;;;;;;;;;2.40;99.90;;;;;;5022945;28;19949;-86
2022/04/11 01:17:06;;;;;;;;;;;2.40;99.90;;;;;;5034010;28;20297;-85
2022/04/11 01:19:31;;;;;;;;;;;2.50;99.90;;;;;;5031782;28;19913;-84
2022/04/11 01:21:57;;;;;;;;;;;2.50;99.90;;;;;;5028119;28;19979;-84
2022/04/11 01:24:22;;;;;;;;;;;2.50;99.90;;;;;;5028477;28;20664;-84
2022/04/11 01:26:49;;;;;;;;;;;2.50;99.90;;;;;;4993294;28;19924;-85
2022/04/11 01:29:16;;;;;;;;;;;2.50;99.90;;;;;;5028606;28;19913;-84
2022/04/11 01:31:42;;;;;;;;;;;2.50;99.90;;;;;;5030413;28;19913;-84
2022/04/11 01:34:07;;;;;;;;;;;2.50;99.90;;;;;;5016289;28;19916;-84
2022/04/11 01:36:33;;;;;;;;;;;2.60;99.90;;;;;;5023396;28;19913;-84
2022/04/11 01:38:58;;;;;;;;;;;2.60;99.90;;;;;;5042965;28;19917;-84
2022/04/11 01:41:24;;;;;;;;;;;2.60;99.90;;;;;;5032391;28;20290;-84
2022/04/11 01:43:49;;;;;;;;;;;2.60;99.90;;;;;;5066832;22;19925;-88
2022/04/11 01:46:15;;;;;;;;;;;2.60;99.90;;;;;;5058430;28;19943;-87
2022/04/11 01:48:40;;;;;;;;;;;2.50;99.90;;;;;;5061644;28;19973;-87
2022/04/11 01:51:06;;;;;;;;;;;2.60;99.90;;;;;;5044218;28;20011;-87
2022/04/11 01:53:31;;;;;;;;;;;2.50;99.90;;;;;;5060432;28;19923;-87
2022/04/11 01:55:57;;;;;;;;;;;2.60;99.90;;;;;;5068425;28;20276;-87
2022/04/11 01:58:23;;;;;;;;;;;2.60;99.90;;;;;;5046269;28;19952;-86
2022/04/11 02:00:48;;;;;;;;;;;2.60;99.90;;;;;;5069394;28;19912;-87
2022/04/11 02:03:14;;;;;;;;;;;2.60;99.90;;;;;;5042690;28;20369;-86
2022/04/11 02:05:40;;;;;;;;;;;2.60;99.90;;;;;;5037703;28;20204;-87
2022/04/11 02:08:09;;;;;;;;;;;2.60;99.90;;;;;;5052538;28;19917;-87
2022/04/11 02:10:36;;;;;;;;;;;2.60;99.90;;;;;;5051820;28;20365;-86
2022/04/11 02:13:01;;;;;;;;;;;2.60;99.90;;;;;;5061352;28;19977;-87
2022/04/11 02:15:27;;;;;;;;;;;2.50;99.90;;;;;;5067695;28;20003;-87
2022/04/11 02:17:52;;;;;;;;;;;2.50;99.90;;;;;;5051643;28;20302;-87
2022/04/11 02:20:18;;;;;;;;;;;2.50;99.90;;;;;;5051682;28;19959;-86
2022/04/11 02:22:48;;;;;;;;;;;2.50;99.90;;;;;;5050428;28;19917;-87
2022/04/11 02:25:14;;;;;;;;;;;2.50;99.90;;;;;;5063196;28;20046;-86
2022/04/11 02:27:40;;;;;;;;;;;2.50;99.90;;;;;;5044909;28;19917;-87
2022/04/11 02:30:06;;;;;;;;;;;2.50;99.90;;;;;;5067569;28;19912;-86
2022/04/11 02:32:31;;;;;;;;;;;2.50;99.90;;;;;;5059229;28;20331;-86
2022/04/11 02:34:57;;;;;;;;;;;2.50;99.90;;;;;;5035191;28;19916;-87
2022/04/11 02:37:23;;;;;;;;;;;2.50;99.90;;;;;;5059238;28;19916;-87
2022/04/11 02:39:48;;;;;;;;;;;2.50;99.90;;;;;;5075490;28;19961;-86
2022/04/11 02:42:21;;;;;;;;;;;2.50;99.90;;;;;;5045983;28;19939;-87
2022/04/11 02:44:46;;;;;;;;;;;2.50;99.90;;;;;;5063802;28;20401;-86
2022/04/11 02:47:12;;;;;;;;;;;2.50;99.90;;;;;;5051669;28;19916;-86
2022/04/11 02:49:37;;;;;;;;;;;2.60;99.90;;;;;;5060606;28;20014;-86
2022/04/11 02:52:03;;;;;;;;;;;2.60;99.90;;;;;;5037932;28;19940;-86
2022/04/11 02:54:28;;;;;;;;;;;2.70;99.90;;;;;;5070082;28;19920;-86
2022/04/11 02:56:54;;;;;;;;;;;2.70;99.90;;;;;;5045267;28;19916;-86
2022/04/11 02:59:19;;;;;;;;;;;2.70;99.90;;;;;;5049124;28;19917;-86
2022/04/11 03:01:45;;;;;;;;;;;2.80;99.90;;;;;;5076043;28;19917;-86
2022/04/11 03:04:10;;;;;;;;;;;2.80;99.90;;;;;;5058512;28;20019;-86
2022/04/11 03:06:36;;;;;;;;;;;2.80;99.90;;;;;;5062559;28;19917;-87
2022/04/11 03:09:01;;;;;;;;;;;2.80;99.90;;;;;;5053469;28;19924;-86
2022/04/11 03:11:27;;;;;;;;;;;2.80;99.90;;;;;;5045777;28;19916;-86
2022/04/11 03:13:52;;;;;;;;;;;2.90;99.90;;;;;;5061636;28;19917;-87
2022/04/11 03:16:18;;;;;;;;;;;2.80;99.90;;;;;;5041956;28;20235;-88
2022/04/11 03:18:43;;;;;;;;;;;2.80;99.90;;;;;;5069707;28;20019;-87
2022/04/11 03:21:09;;;;;;;;;;;2.80;99.90;;;;;;5046194;28;19920;-86
2022/04/11 03:23:34;;;;;;;;;;;2.80;99.90;;;;;;5049659;28;19920;-87
2022/04/11 03:26:00;;;;;;;;;;;2.70;99.90;;;;;;5045845;28;19916;-86
2022/04/11 03:28:25;;;;;;;;;;;2.70;99.90;;;;;;5044651;28;19927;-86
2022/04/11 03:30:51;;;;;;;;;;;2.60;99.90;;;;;;5065536;28;19960;-87
2022/04/11 03:33:16;;;;;;;;;;;2.60;99.90;;;;;;5041755;28;19921;-87
2022/04/11 03:35:42;;;;;;;;;;;2.60;99.90;;;;;;5061404;28;20364;-86
2022/04/11 03:38:07;;;;;;;;;;;2.50;99.90;;;;;;5046044;28;19943;-86
2022/04/11 03:40:33;;;;;;;;;;;2.50;99.90;;;;;;5051050;28;19916;-87
2022/04/11 03:42:58;;;;;;;;;;;2.40;99.90;;;;;;5047858;28;20313;-89
2022/04/11 03:45:24;;;;;;;;;;;2.40;99.90;;;;;;5061818;28;19942;-87
2022/04/11 03:47:49;;;;;;;;;;;2.30;99.90;;;;;;5043993;28;19917;-87
2022/04/11 03:50:15;;;;;;;;;;;2.30;99.90;;;;;;5061916;28;20055;-87
2022/04/11 03:52:40;;;;;;;;;;;2.20;99.90;;;;;;5056713;28;19913;-87
2022/04/11 03:55:06;;;;;;;;;;;2.20;99.90;;;;;;5034314;28;19920;-86
2022/04/11 03:57:32;;;;;;;;;;;2.20;99.90;;;;;;5057476;28;19959;-86
2022/04/11 03:59:58;;;;;;;;;;;2.20;99.90;;;;;;5034844;28;19927;-87
2022/04/11 04:02:23;;;;;;;;;;;2.20;99.90;;;;;;5042753;28;19928;-87
2022/04/11 04:04:49;;;;;;;;;;;2.20;99.90;;;;;;5067540;28;19958;-86
2022/04/11 04:07:14;;;;;;;;;;;2.20;99.90;;;;;;5044446;28;19923;-86
2022/04/11 04:09:40;;;;;;;;;;;2.10;99.90;;;;;;5043950;28;20229;-86
2022/04/11 04:12:06;;;;;;;;;;;2.10;99.90;;;;;;5038063;28;20339;-87
2022/04/11 04:14:31;;;;;;;;;;;2.10;99.90;;;;;;5067834;28;19916;-87
2022/04/11 04:16:56;;;;;;;;;;;2.10;99.90;;;;;;5042926;28;19920;-87
2022/04/11 04:19:22;;;;;;;;;;;2.10;99.90;;;;;;5039057;28;19959;-87
2022/04/11 04:21:49;;;;;;;;;;;2.10;99.90;;;;;;5041783;28;19917;-88
2022/04/11 04:24:14;;;;;;;;;;;2.10;99.90;;;;;;5048177;28;19942;-86
2022/04/11 04:26:40;;;;;;;;;;;2.10;99.90;;;;;;5049421;28;19917;-87
2022/04/11 04:29:05;;;;;;;;;;;2.10;99.90;;;;;;5068906;28;20399;-87
2022/04/11 04:31:31;;;;;;;;;;;2.10;99.90;;;;;;5066172;28;20276;-87
2022/04/11 04:33:57;;;;;;;;;;;2.10;99.90;;;;;;5043254;28;20377;-87
2022/04/11 04:36:22;;;;;;;;;;;2.10;99.90;;;;;;5042046;28;19927;-87
2022/04/11 04:38:48;;;;;;;;;;;2.10;99.90;;;;;;5044808;28;19924;-88
2022/04/11 04:41:13;;;;;;;;;;;2.10;99.90;;;;;;5069272;28;20281;-87
2022/04/11 04:43:39;;;;;;;;;;;2.00;99.90;;;;;;5064747;28;20015;-87
2022/04/11 04:46:04;;;;;;;;;;;2.00;99.90;;;;;;5060794;28;19908;-87
2022/04/11 04:48:30;;;;;;;;;;;2.00;99.90;;;;;;5064589;28;19913;-87
2022/04/11 04:50:56;;;;;;;;;;;2.00;99.90;;;;;;5045092;28;20450;-89
2022/04/11 04:53:22;;;;;;;;;;;2.00;99.90;;;;;;5068513;28;19935;-86
2022/04/11 04:55:47;;;;;;;;;;;2.00;99.90;;;;;;5059422;28;19920;-86
2022/04/11 04:58:13;;;;;;;;;;;1.90;99.90;;;;;;5054930;28;20359;-87
2022/04/11 05:00:38;;;;;;;;;;;1.90;99.90;;;;;;5054239;28;20497;-88
2022/04/11 05:03:04;;;;;;;;;;;1.80;99.90;;;;;;5064327;28;19917;-87
2022/04/11 05:05:29;;;;;;;;;;;1.80;99.90;;;;;;5057194;28;19916;-86
2022/04/11 05:07:55;;;;;;;;;;;1.70;99.90;;;;;;5038713;28;19969;-87
2022/04/11 05:10:21;;;;;;;;;;;1.70;99.90;;;;;;5051273;28;19938;-86
2022/04/11 05:12:47;;;;;;;;;;;1.60;99.90;;;;;;5058595;28;19926;-86
2022/04/11 05:15:13;;;;;;;;;;;1.60;99.90;;;;;;5058050;28;19912;-87
2022/04/11 05:17:38;;;;;;;;;;;1.60;99.90;;;;;;5059321;28;19916;-86
2022/04/11 05:20:04;;;;;;;;;;;1.60;99.90;;;;;;5068019;28;20352;-86
2022/04/11 05:22:30;;;;;;;;;;;1.70;99.90;;;;;;5056027;28;19912;-88
2022/04/11 05:24:55;;;;;;;;;;;1.70;99.90;;;;;;5066924;28;20273;-87
2022/04/11 05:27:21;;;;;;;;;;;1.80;99.90;;;;;;5060736;28;19912;-88
2022/04/11 05:29:46;;;;;;;;;;;1.80;99.90;;;;;;5062572;28;20359;-88
2022/04/11 05:32:12;;;;;;;;;;;1.90;99.90;;;;;;5058706;28;19917;-87
2022/04/11 05:34:37;;;;;;;;;;;2.00;99.90;;;;;;5062892;28;19928;-88
2022/04/11 05:37:03;;;;;;;;;;;2.00;99.90;;;;;;5070571;28;19957;-86
2022/04/11 05:39:30;;;;;;;;;;;2.10;99.90;;;;;;5039068;28;19917;-87
2022/04/11 05:41:56;;;;;;;;;;;2.20;99.90;;;;;;5055229;28;19928;-87
2022/04/11 05:44:21;;;;;;;;;;;2.30;99.90;;;;;;5040041;28;20104;-87
2022/04/11 05:46:52;;;;;;;;;;;2.40;99.90;;;;;;5055044;28;20268;-87
2022/04/11 05:49:21;;;;;;;;;;;2.50;99.90;;;;;;5048181;28;19916;-89
2022/04/11 05:51:47;;;;;;;;;;;2.70;99.90;;;;;;5059709;28;20415;-87
2022/04/11 05:54:13;;;;;;;;;;;2.80;99.90;;;;;;5072322;28;19944;-87
2022/04/11 05:56:39;;;;;;;;;;;2.90;99.90;;;;;;5064545;28;20345;-87
2022/04/11 05:59:04;;;;;;;;;;;3.10;99.90;;;;;;5036979;28;19959;-88
2022/04/11 06:01:30;;;;;;;;;;;3.20;99.90;;;;;;5054471;28;19931;-87
2022/04/11 06:03:56;;;;;;;;;;;3.30;99.90;;;;;;5060074;28;19938;-87
2022/04/11 06:06:21;;;;;;;;;;;3.40;99.90;;;;;;5071675;28;19912;-88
2022/04/11 06:08:47;;;;;;;;;;;3.50;99.90;;;;;;5057585;28;19996;-87
2022/04/11 06:11:13;;;;;;;;;;;3.60;99.90;;;;;;5060780;28;20292;-88
2022/04/11 06:13:41;;;;;;;;;;;3.70;99.90;;;;;;5066233;28;19917;-87
2022/04/11 06:16:06;;;;;;;;;;;3.80;99.90;;;;;;5059651;28;20389;-88
2022/04/11 06:18:32;;;;;;;;;;;3.90;99.90;;;;;;5053635;28;19913;-87
2022/04/11 06:20:57;;;;;;;;;;;4.00;99.90;;;;;;5062798;28;19912;-87
2022/04/11 06:23:23;;;;;;;;;;;4.10;99.90;;;;;;5063178;28;19920;-89
2022/04/11 06:25:48;;;;;;;;;;;4.20;99.90;;;;;;5038647;28;20344;-86
2022/04/11 06:28:14;;;;;;;;;;;4.30;99.90;;;;;;5059013;28;19946;-90
2022/04/11 06:30:39;;;;;;;;;;;4.40;99.90;;;;;;5054706;28;19931;-87
2022/04/11 06:33:05;;;;;;;;;;;4.50;99.90;;;;;;5041687;28;19917;-87
2022/04/11 06:35:30;;;;;;;;;;;4.60;99.90;;;;;;5043593;28;19916;-87
2022/04/11 06:37:56;;;;;;;;;;;4.60;99.90;;;;;;5054963;28;19916;-88
2022/04/11 06:40:21;;;;;;;;;;;4.70;99.90;;;;;;5070608;28;19927;-89
2022/04/11 06:42:46;;;;;;;;;;;4.80;99.90;;;;;;5054105;28;19943;-87
2022/04/11 06:45:14;;;;;;;;;;;4.80;99.90;;;;;;5047553;28;19917;-88
2022/04/11 06:47:40;;;;;;;;;;;4.90;99.90;;;;;;5060261;28;19915;-87
2022/04/11 06:50:05;;;;;;;;;;;5.00;99.90;;;;;;5070800;28;19929;-87
2022/04/11 06:52:31;;;;;;;;;;;5.10;99.90;;;;;;5062373;28;19948;-87
2022/04/11 06:54:56;;;;;;;;;;;5.20;99.90;;;;;;5045713;28;20309;-88
2022/04/11 06:57:23;;;;;;;;;;;5.30;99.90;;;;;;5053693;28;20011;-88
2022/04/11 06:59:49;;;;;;;;;;;5.40;99.90;;;;;;5062340;28;19912;-88
2022/04/11 07:02:14;;;;;;;;;;;5.40;99.90;;;;;;5049278;28;19916;-88
2022/04/11 07:04:40;;;;;;;;;;;5.50;99.90;;;;;;5061314;28;20258;-88
2022/04/11 07:07:05;;;;;;;;;;;5.60;99.90;;;;;;5067232;28;19998;-87
2022/04/11 07:09:31;;;;;;;;;;;5.70;99.90;;;;;;5042557;28;19917;-87
2022/04/11 07:11:57;;;;;;;;;;;5.70;99.90;;;;;;5060780;28;19912;-88
2022/04/11 07:14:23;;;;;;;;;;;5.80;99.90;;;;;;5054341;28;19909;-90
2022/04/11 07:16:49;;;;;;;;;;;5.90;99.90;;;;;;5054146;28;19923;-89
2022/04/11 07:19:15;;;;;;;;;;;6.00;99.90;;;;;;5070894;28;20435;-87
2022/04/11 07:21:40;;;;;;;;;;;6.00;99.90;;;;;;5070368;28;20011;-89
2022/04/11 07:24:06;;;;;;;;;;;6.10;99.90;;;;;;5049698;28;20303;-88
2022/04/11 07:26:31;;;;;;;;;;;6.20;99.90;;;;;;5034644;28;19917;-88
2022/04/11 07:28:57;;;;;;;;;;;6.20;99.60;;;;;;5050918;28;20080;-89
2022/04/11 07:31:22;;;;;;;;;;;6.30;99.00;;;;;;5041779;28;20467;-89
2022/04/11 07:33:49;;;;;;;;;;;6.40;99.90;;;;;;5034206;28;19921;-88
2022/04/11 07:36:14;;;;;;;;;;;6.50;99.90;;;;;;5052046;28;19909;-88
2022/04/11 07:38:40;;;;;;;;;;;6.60;99.90;;;;;;5069746;28;19915;-88
2022/04/11 07:41:05;;;;;;;;;;;6.80;99.90;;;;;;5064472;28;20033;-88
2022/04/11 07:43:31;;;;;;;;;;;6.90;99.90;;;;;;5067814;22;20179;-85
2022/04/11 07:45:56;;;;;;;;;;;7.10;99.10;;;;;;5050135;28;19917;-85
2022/04/11 07:48:22;;;;;;;;;;;7.20;97.50;;;;;;5036333;28;20373;-85
2022/04/11 07:50:47;;;;;;;;;;;7.30;97.40;;;;;;5049070;28;19996;-85
2022/04/11 07:53:13;;;;;;;;;;;7.40;94.70;;;;;;5042233;28;19921;-85
2022/04/11 07:55:38;;;;;;;;;;;7.50;94.30;;;;;;5021719;28;19921;-85
2022/04/11 07:58:04;;;;;;;;;;;7.60;94.20;;;;;;5048663;28;19924;-84
2022/04/11 08:00:30;;;;;;;;;;;7.70;93.50;;;;;;5036228;28;19919;-85
2022/04/11 08:02:56;;;;;;;;;;;7.80;92.70;;;;;;5049170;28;19999;-85
2022/04/11 08:05:22;;;;;;;;;;;7.90;90.20;;;;;;5035166;28;19916;-85
2022/04/11 08:07:48;;;;;;;;;;;8.00;91.10;;;;;;5031828;28;19917;-85
2022/04/11 08:10:14;;;;;;;;;;;8.10;86.60;;;;;;5032260;28;19920;-85
2022/04/11 08:12:40;;;;;;;;;;;8.10;86.30;;;;;;5046646;28;20384;-85
2022/04/11 08:15:06;;;;;;;;;;;8.20;85.00;;;;;;5041830;28;19917;-85
2022/04/11 08:17:31;;;;;;;;;;;8.20;85.20;;;;;;5028433;28;20296;-85
2022/04/11 08:19:56;;;;;;;;;;;8.30;85.80;;;;;;5052022;28;19917;-84
2022/04/11 08:22:22;;;;;;;;;;;8.40;85.70;;;;;;5034737;28;19913;-85
2022/04/11 08:24:47;;;;;;;;;;;8.50;85.30;;;;;;5052798;28;20432;-85
2022/04/11 08:27:13;;;;;;;;;;;8.60;83.20;;;;;;5052473;28;19915;-85
2022/04/11 08:29:38;;;;;;;;;;;8.70;84.30;;;;;;5051849;28;19917;-85
2022/04/11 08:32:04;;;;;;;;;;;8.80;80.60;;;;;;5036291;28;20007;-85
2022/04/11 08:34:30;;;;;;;;;;;8.90;80.80;;;;;;5052216;28;20348;-85
2022/04/11 08:36:55;;;;;;;;;;;8.90;80.70;;;;;;5052245;28;20378;-85
2022/04/11 08:39:21;;;;;;;;;;;9.00;79.10;;;;;;5053272;28;19917;-85
2022/04/11 08:41:46;;;;;;;;;;;9.10;79.00;;;;;;5054581;28;19915;-85
2022/04/11 08:44:12;;;;;;;;;;;9.20;80.20;;;;;;5052793;28;19978;-85
2022/04/11 08:46:38;;;;;;;;;;;9.30;74.70;;;;;;5036562;28;19917;-85
2022/04/11 08:49:06;;;;;;;;;;;9.40;74.90;;;;;;5053227;28;20365;-85
2022/04/11 08:51:33;;;;;;;;;;;9.50;73.60;;;;;;5052482;28;19909;-85
2022/04/11 08:54:02;;;;;;;;;;;9.60;71.70;;;;;;5040138;28;19913;-84
2022/04/11 08:56:28;;;;;;;;;;;9.70;71.90;;;;;;5051015;28;19909;-84
2022/04/11 08:58:54;;;;;;;;;;;9.90;73.20;;;;;;5050850;28;19920;-85
2022/04/11 09:01:20;;;;;;;;;;;9.90;68.70;;;;;;5051069;28;20304;-85
2022/04/11 09:03:46;;;;;;;;;;;9.90;67.30;;;;;;5050644;28;19940;-85
2022/04/11 09:06:14;;;;;;;;;;;9.90;67.60;;;;;;5050559;28;19913;-85
2022/04/11 09:08:40;;;;;;;;;;;9.90;65.80;;;;;;5050086;28;19913;-85
2022/04/11 09:11:06;;;;;;;;;;;10.00;69.40;;;;;;5052703;28;19986;-85
2022/04/11 09:13:51;;;;;;;;;;;10.00;65.70;;;;;;5033826;28;19913;-85
2022/04/11 09:16:16;;;;;;;;;;;10.10;64.70;;;;;;5052646;28;19913;-85
2022/04/11 09:18:49;;;;;;;;;;;10.10;65.80;;;;;;5049948;28;19913;-85
2022/04/11 09:21:15;;;;;;;;;;;10.10;63.70;;;;;;5050127;28;19996;-84
2022/04/11 09:23:41;;;;;;;;;;;10.20;62.90;;;;;;5050216;28;19921;-84
2022/04/11 09:26:19;;;;;;;;;;;10.30;61.00;;;;;;5051120;28;19912;-84
2022/04/11 09:28:57;;;;;;;;;;;10.30;60.80;;;;;;5049727;28;20008;-85
2022/04/11 09:31:23;;;;;;;;;;;10.40;60.50;;;;;;5034363;28;20396;-84
2022/04/11 09:33:49;;;;;;;;;;;10.50;61.10;;;;;;5034518;28;19913;-84
2022/04/11 09:36:15;;;;;;;;;;;10.70;62.10;;;;;;5050425;28;19916;-85
2022/04/11 09:38:41;;;;;;;;;;;10.80;61.80;;;;;;5050731;28;19999;-85
2022/04/11 09:41:06;;;;;;;;;;;10.90;60.50;;;;;;5050434;28;19962;-85
2022/04/11 09:43:33;;;;;;;;;;;10.90;59.30;;;;;;5033991;28;19924;-84
2022/04/11 09:46:01;;;;;;;;;;;11.00;58.70;;;;;;5051208;28;19913;-85
2022/04/11 09:48:28;;;;;;;;;;;11.10;59.60;;;;;;5033556;28;19916;-85
2022/04/11 09:50:54;;;;;;;;;;;11.10;58.70;;;;;;5033581;28;20372;-84
2022/04/11 09:53:21;;;;;;;;;;;11.10;58.90;;;;;;5050085;28;20041;-85
2022/04/11 09:55:47;;;;;;;;;;;11.20;57.50;;;;;;5050862;28;20472;-85
2022/04/11 09:58:13;;;;;;;;;;;11.20;57.80;;;;;;5051419;28;19909;-85
2022/04/11 10:00:40;;;;;;;;;;;11.30;58.70;;;;;;5053397;28;19908;-82
2022/04/11 10:03:05;;;;;;;;;;;11.40;57.60;;;;;;5045717;28;20019;-84
2022/04/11 10:05:34;;;;;;;;;;;11.50;57.30;;;;;;5061912;28;19967;-84
2022/04/11 10:08:01;;;;;;;;;;;11.50;57.60;;;;;;5055789;28;20114;-84
2022/04/11 10:10:27;;;;;;;;;;;11.50;55.50;;;;;;5052164;28;19909;-84
2022/04/11 10:12:53;;;;;;;;;;;11.60;54.50;;;;;;5052513;28;19924;-84
2022/04/11 10:15:22;;;;;;;;;;;11.70;54.90;;;;;;5053088;28;20016;-84
2022/04/11 10:17:53;;;;;;;;;;;11.80;54.60;;;;;;5052446;28;19916;-84
2022/04/11 10:20:28;;;;;;;;;;;11.80;54.70;;;;;;5036157;28;20319;-85
2022/04/11 10:23:17;;;;;;;;;;;11.90;55.70;;;;;;5052947;28;19921;-84
2022/04/11 10:25:47;;;;;;;;;;;12.00;54.80;;;;;;5024505;28;19908;-84
2022/04/11 10:28:13;;;;;;;;;;;12.10;54.60;;;;;;5051956;28;19913;-84
2022/04/11 10:30:39;;;;;;;;;;;12.20;54.10;;;;;;5053767;28;19912;-84
2022/04/11 10:33:04;;;;;;;;;;;12.30;54.70;;;;;;5052035;28;19917;-84
2022/04/11 10:35:31;;;;;;;;;;;12.40;54.60;;;;;;5053958;28;20254;-84
2022/04/11 10:37:57;;;;;;;;;;;12.50;55.30;;;;;;5052001;28;19908;-85
2022/04/11 10:40:22;;;;;;;;;;;12.60;54.20;;;;;;5052076;28;19968;-84
2022/04/11 10:43:00;;;;;;;;;;;12.50;54.20;;;;;;5051626;28;19923;-84
2022/04/11 10:45:30;;;;;;;;;;;12.60;54.90;;;;;;5051814;28;19920;-84
2022/04/11 10:47:55;;;;;;;;;;;12.70;54.90;;;;;;5052663;28;19920;-84
2022/04/11 10:50:22;;;;;;;;;;;12.70;54.30;;;;;;5052366;28;19913;-84
2022/04/11 10:52:52;;;;;;;;;;;12.70;53.20;;;;;;5035644;28;19953;-84
2022/04/11 10:55:18;;;;;;;;;;;12.60;53.40;;;;;;5051943;28;19909;-84
2022/04/11 10:57:46;;;;;;;;;;;12.60;52.20;;;;;;5035700;28;20381;-84
2022/04/11 11:00:12;;;;;;;;;;;12.60;52.60;;;;;;5055346;28;19909;-84
2022/04/11 11:02:50;;;;;;;;;;;12.60;53.70;;;;;;5037414;28;19913;-84
2022/04/11 11:05:36;;;;;;;;;;;12.70;53.00;;;;;;5055963;28;19917;-84
2022/04/11 11:08:11;;;;;;;;;;;12.70;52.30;;;;;;5038974;28;19913;-84
2022/04/11 11:10:44;;;;;;;;;;;12.70;51.90;;;;;;5053323;28;20000;-84
2022/04/11 11:13:33;;;;;;;;;;;12.80;52.50;;;;;;5050894;28;19976;-84
2022/04/11 11:16:07;;;;;;;;;;;12.80;50.90;;;;;;5046733;28;19909;-84
2022/04/11 11:18:51;;;;;;;;;;;12.80;52.00;;;;;;5050674;28;20440;-84
2022/04/11 11:21:17;;;;;;;;;;;12.90;52.20;;;;;;5050832;28;20289;-84
2022/04/11 11:23:56;;;;;;;;;;;13.00;51.10;;;;;;5033513;28;22232;-84
2022/04/11 11:26:22;;;;;;;;;;;13.10;50.60;;;;;;5051000;28;19939;-84
2022/04/11 11:28:48;;;;;;;;;;;13.10;50.70;;;;;;5051890;28;19920;-84
2022/04/11 11:31:13;;;;;;;;;;;13.20;52.10;;;;;;5034198;28;19917;-84
2022/04/11 11:33:49;;;;;;;;;;;13.30;50.40;;;;;;5050861;28;20418;-84
2022/04/11 11:36:15;;;;;;;;;;;13.30;51.00;;;;;;5050884;28;19909;-84
2022/04/11 11:38:40;;;;;;;;;;;13.40;50.90;;;;;;5049774;28;19962;-84
2022/04/11 11:41:06;;;;;;;;;;;13.40;50.80;;;;;;5034375;28;19921;-83
2022/04/11 11:43:31;;;;;;;;;;;13.50;50.60;;;;;;5048934;28;19921;-84
2022/04/11 11:46:00;;;;;;;;;;;13.60;49.70;;;;;;5027206;28;20301;-84
2022/04/11 11:48:30;;;;;;;;;;;13.80;50.20;;;;;;5015853;28;19978;-84
2022/04/11 11:50:56;;;;;;;;;;;13.80;49.40;;;;;;5042953;28;20010;-83
2022/04/11 11:53:23;;;;;;;;;;;13.80;50.90;;;;;;5021089;28;19924;-84
2022/04/11 11:55:56;;;;;;;;;;;13.80;49.80;;;;;;5026106;28;19943;-84
2022/04/11 11:58:22;;;;;;;;;;;13.80;49.00;;;;;;5033014;28;20000;-84
2022/04/11 12:00:48;;;;;;;;;;;13.90;49.60;;;;;;5048752;28;19908;-83
2022/04/11 12:06:01;;;;;;;;;;;14.10;51.40;;;;;;5032358;28;19917;-84
2022/04/11 12:08:30;;;;;;;;;;;14.20;49.30;;;;;;5031230;28;19913;-84
2022/04/11 12:10:57;;;;;;;;;;;14.30;48.40;;;;;;5023885;28;19921;-84
2022/04/11 12:13:24;;;;;;;;;;;14.50;48.00;;;;;;5019269;28;20191;-84
2022/04/11 12:15:50;;;;;;;;;;;14.60;47.90;;;;;;5046394;28;19921;-84
2022/04/11 12:18:15;;;;;;;;;;;14.70;48.00;;;;;;5037873;28;20003;-83
2022/04/11 12:20:43;;;;;;;;;;;14.70;47.00;;;;;;5039453;28;19924;-84
2022/04/11 12:23:17;;;;;;;;;;;14.60;47.20;;;;;;5027061;28;19928;-85
2022/04/11 12:25:51;;;;;;;;;;;14.50;47.80;;;;;;5045287;28;19913;-85
2022/04/11 12:28:19;;;;;;;;;;;14.60;48.40;;;;;;5041438;28;20289;-85
2022/04/11 12:30:45;;;;;;;;;;;14.60;47.50;;;;;;5048891;28;19923;-84
2022/04/11 12:33:29;;;;;;;;;;;14.70;47.00;;;;;;5044396;28;20003;-84
2022/04/11 12:36:14;;;;;;;;;;;14.70;47.20;;;;;;5043863;28;19960;-85
2022/04/11 12:38:49;;;;;;;;;;;14.60;47.80;;;;;;5046653;28;19980;-84
2022/04/11 12:41:25;;;;;;;;;;;14.60;47.00;;;;;;5038165;28;20025;-85
2022/04/11 12:44:07;;;;;;;;;;;14.50;47.70;;;;;;5036348;28;19931;-85
2022/04/11 12:46:33;;;;;;;;;;;14.50;48.40;;;;;;5042788;28;19913;-84
2022/04/11 12:48:58;;;;;;;;;;;14.60;49.30;;;;;;5040784;28;19913;-84
2022/04/11 12:51:25;;;;;;;;;;;14.60;47.70;;;;;;5044306;28;19919;-85
2022/04/11 12:53:51;;;;;;;;;;;14.50;47.70;;;;;;5047134;28;20011;-84
2022/04/11 12:56:16;;;;;;;;;;;14.60;49.20;;;;;;5036916;28;19948;-84
2022/04/11 12:58:42;;;;;;;;;;;14.60;48.30;;;;;;5055595;28;19913;-84
2022/04/11 13:01:07;;;;;;;;;;;14.70;48.00;;;;;;5052794;28;19941;-85
2022/04/11 13:03:34;;;;;;;;;;;14.70;48.10;;;;;;5037702;28;19932;-85
2022/04/11 13:06:01;;;;;;;;;;;14.80;47.80;;;;;;5051858;28;19971;-85
2022/04/11 13:08:27;;;;;;;;;;;14.80;46.60;;;;;;5047829;28;20389;-85
2022/04/11 13:10:55;;;;;;;;;;;14.70;47.80;;;;;;5044554;28;19964;-86
2022/04/11 13:13:20;;;;;;;;;;;14.70;47.80;;;;;;5021077;28;19966;-85
2022/04/11 13:18:31;;;;;;;;;;;14.70;48.60;;;;;;5048854;28;19928;-82
2022/04/11 13:20:56;;;;;;;;;;;14.70;51.60;;;;;;5048512;28;19924;-83
2022/04/11 13:23:22;;;;;;;;;;;14.70;49.40;;;;;;5040700;28;19917;-84
2022/04/11 13:25:47;;;;;;;;;;;14.80;48.40;;;;;;5023790;28;20012;-84
2022/04/11 13:28:12;;;;;;;;;;;14.80;47.70;;;;;;5039923;28;19975;-83
2022/04/11 13:30:38;;;;;;;;;;;14.90;49.20;;;;;;5041986;28;19928;-82
2022/04/11 13:33:03;;;;;;;;;;;14.80;47.60;;;;;;5038592;28;20012;-83
2022/04/11 13:35:29;;;;;;;;;;;14.80;48.60;;;;;;5040131;28;19921;-83
2022/04/11 13:37:54;;;;;;;;;;;14.80;48.00;;;;;;5026074;28;20292;-83
2022/04/11 13:40:20;;;;;;;;;;;14.80;47.20;;;;;;5019969;28;19917;-83
2022/04/11 13:42:45;;;;;;;;;;;14.70;48.10;;;;;;5050448;28;19917;-83
2022/04/11 13:45:11;;;;;;;;;;;14.70;47.90;;;;;;5059474;23;20300;-84
2022/04/11 13:47:36;;;;;;;;;;;14.60;47.40;;;;;;5057290;28;19917;-83
2022/04/11 13:50:02;;;;;;;;;;;14.70;49.10;;;;;;5072385;28;20025;-84
2022/04/11 13:52:27;;;;;;;;;;;14.70;47.50;;;;;;5065123;28;19913;-85
2022/04/11 13:54:53;;;;;;;;;;;14.70;47.60;;;;;;5070718;28;20001;-84
2022/04/11 13:57:19;;;;;;;;;;;14.70;47.40;;;;;;5066195;28;19962;-85
2022/04/11 13:59:44;;;;;;;;;;;14.70;48.00;;;;;;5065646;28;20111;-84
2022/04/11 14:02:10;;;;;;;;;;;14.60;49.20;;;;;;5055340;28;20670;-84
2022/04/11 14:04:36;;;;;;;;;;;14.60;48.70;;;;;;5039888;28;19929;-85
2022/04/11 14:07:01;;;;;;;;;;;14.60;49.60;;;;;;5058252;28;20316;-85
2022/04/11 14:09:27;;;;;;;;;;;14.50;48.10;;;;;;5056684;28;19925;-84
2022/04/11 14:11:52;;;;;;;;;;;14.40;48.80;;;;;;5066510;28;19927;-85
2022/04/11 14:14:18;;;;;;;;;;;14.50;48.20;;;;;;5067024;28;19912;-85
2022/04/11 14:16:43;;;;;;;;;;;14.50;50.30;;;;;;5066601;28;19920;-83
2022/04/11 14:19:09;;;;;;;;;;;14.50;49.20;;;;;;5057579;28;19959;-84
2022/04/11 14:21:34;;;;;;;;;;;14.50;48.90;;;;;;5044827;28;19921;-84
2022/04/11 14:24:00;;;;;;;;;;;14.50;48.40;;;;;;5041789;28;19921;-84
2022/04/11 14:26:25;;;;;;;;;;;14.50;48.20;;;;;;5061141;28;19969;-84
2022/04/11 14:28:51;;;;;;;;;;;14.50;48.20;;;;;;5059439;28;20014;-83